createdAt,value
2024-02-06T00:01:03.948Z,77.04
2024-02-06T00:03:40.516Z,76.82
2024-02-06T00:06:26.633Z,76.62
2024-02-06T00:11:54.998Z,76.36
2024-02-06T00:14:41.725Z,76.54
2024-02-06T00:20:02.183Z,76.39
2024-02-06T00:22:29.514Z,76.52
2024-02-06T00:24:57.266Z,76.19
2024-02-06T00:27:24.157Z,76.45
2024-02-06T00:29:53.413Z,76.25
2024-02-06T00:32:20.787Z,76.59
2024-02-06T00:34:48.238Z,76.53
2024-02-06T00:37:17.370Z,76.40
2024-02-06T00:39:44.626Z,76.16
2024-02-06T00:42:11.748Z,76.61
2024-02-06T00:44:41.424Z,76.44
2024-02-06T00:47:09.155Z,76.52
2024-02-06T00:49:37.455Z,76.65
2024-02-06T00:52:04.863Z,76.47
2024-02-06T00:54:32.376Z,76.70
2024-02-06T00:56:59.135Z,76.71
2024-02-06T00:59:26.031Z,77.02
2024-02-06T01:01:53.253Z,76.61
2024-02-06T01:04:20.443Z,76.74
2024-02-06T01:06:48.708Z,76.89
2024-02-06T01:09:15.548Z,76.76
2024-02-06T01:11:42.743Z,76.95
2024-02-06T01:14:09.495Z,77.34
2024-02-06T01:16:36.329Z,76.87
2024-02-06T01:19:03.398Z,76.86
2024-02-06T01:21:30.624Z,76.80
2024-02-06T01:23:57.696Z,76.79
2024-02-06T01:26:27.384Z,76.82
2024-02-06T01:28:54.267Z,76.80
2024-02-06T01:31:21.109Z,76.91
2024-02-06T01:33:47.987Z,76.75
2024-02-06T01:36:14.762Z,76.46
2024-02-06T01:38:42.356Z,76.30
2024-02-06T01:41:09.250Z,76.57
2024-02-06T01:43:36.072Z,76.73
2024-02-06T01:46:03.035Z,76.55
2024-02-06T01:48:31.105Z,76.37
2024-02-06T01:50:58.030Z,76.57
2024-02-06T01:53:25.133Z,76.46
2024-02-06T01:55:52.088Z,76.49
2024-02-06T01:58:19.576Z,76.34
2024-02-06T02:00:46.833Z,76.42
2024-02-06T02:03:14.323Z,76.21
2024-02-06T02:05:46.167Z,76.25
2024-02-06T02:08:13.622Z,76.39
2024-02-06T02:10:42.008Z,76.16
2024-02-06T02:13:08.823Z,76.46
2024-02-06T02:15:35.613Z,76.57
2024-02-06T02:18:02.503Z,76.27
2024-02-06T02:20:29.358Z,76.07
2024-02-06T02:22:56.069Z,76.67
2024-02-06T02:25:23.853Z,76.70
2024-02-06T02:27:51.602Z,76.85
2024-02-06T02:30:19.546Z,76.64
2024-02-06T02:32:46.627Z,76.58
2024-02-06T02:35:14.798Z,76.61
2024-02-06T02:37:41.636Z,76.73
2024-02-06T02:40:09.090Z,76.48
2024-02-06T02:42:35.907Z,76.67
2024-02-06T02:45:03.543Z,76.59
2024-02-06T02:47:30.329Z,76.64
2024-02-06T02:49:57.222Z,76.69
2024-02-06T02:52:24.057Z,76.71
2024-02-06T02:54:50.968Z,76.85
2024-02-06T02:57:17.815Z,76.84
2024-02-06T02:59:44.613Z,76.71
2024-02-06T03:02:11.854Z,76.71
2024-02-06T03:04:39.194Z,76.90
2024-02-06T03:07:06.422Z,76.63
2024-02-06T03:09:33.170Z,76.84
2024-02-06T03:11:59.929Z,76.75
2024-02-06T03:14:26.626Z,76.24
2024-02-06T03:16:53.369Z,76.67
2024-02-06T03:19:20.255Z,76.45
2024-02-06T03:21:47.603Z,76.59
2024-02-06T03:24:14.403Z,76.70
2024-02-06T03:26:41.550Z,76.42
2024-02-06T03:29:08.348Z,76.59
2024-02-06T03:31:35.454Z,76.51
2024-02-06T03:34:02.312Z,76.75
2024-02-06T03:36:29.200Z,76.47
2024-02-06T03:38:55.932Z,76.49
2024-02-06T03:41:22.745Z,76.76
2024-02-06T03:43:50.585Z,76.56
2024-02-06T03:46:17.391Z,76.42
2024-02-06T03:48:44.597Z,76.57
2024-02-06T03:51:11.392Z,76.43
2024-02-06T03:53:38.145Z,76.21
2024-02-06T03:56:05.171Z,76.18
2024-02-06T03:58:32.345Z,76.21
2024-02-06T04:00:59.450Z,76.56
2024-02-06T04:03:26.604Z,76.25
2024-02-06T04:05:54.238Z,76.26
2024-02-06T04:08:21.032Z,76.43
2024-02-06T04:10:47.959Z,76.34
2024-02-06T04:13:14.851Z,76.20
2024-02-06T04:15:41.717Z,76.63
2024-02-06T04:18:08.819Z,76.55
2024-02-06T04:20:35.899Z,77.07
2024-02-06T04:23:03.184Z,76.68
2024-02-06T04:25:30.097Z,76.74
2024-02-06T04:27:57.317Z,76.85
2024-02-06T04:30:24.827Z,76.59
2024-02-06T04:32:55.109Z,76.76
2024-02-06T04:35:22.351Z,76.73
2024-02-06T04:37:49.645Z,76.73
2024-02-06T04:40:16.697Z,76.92
2024-02-06T04:42:43.872Z,76.69
2024-02-06T04:45:12.543Z,77.03
2024-02-06T04:47:39.364Z,76.62
2024-02-06T04:50:07.419Z,77.13
2024-02-06T04:52:38.422Z,77.06
2024-02-06T04:55:08.064Z,76.85
2024-02-06T04:57:35.510Z,77.14
2024-02-06T05:00:02.446Z,77.31
2024-02-06T05:02:29.215Z,77.09
2024-02-06T05:04:56.191Z,77.46
2024-02-06T05:07:23.265Z,77.12
2024-02-06T05:09:50.564Z,77.22
2024-02-06T05:12:17.365Z,77.30
2024-02-06T05:14:44.610Z,77.29
2024-02-06T05:17:11.325Z,77.40
2024-02-06T05:19:42.391Z,77.31
2024-02-06T05:22:09.971Z,77.42
2024-02-06T05:24:36.938Z,77.29
2024-02-06T05:27:05.119Z,77.48
2024-02-06T05:29:32.985Z,77.48
2024-02-06T05:32:00.018Z,77.50
2024-02-06T05:34:27.607Z,77.68
2024-02-06T05:36:54.957Z,77.68
2024-02-06T05:39:21.746Z,77.48
2024-02-06T05:41:48.691Z,77.38
2024-02-06T05:44:15.589Z,77.86
2024-02-06T05:46:43.039Z,77.92
2024-02-06T05:49:09.914Z,77.68
2024-02-06T05:51:37.237Z,77.68
2024-02-06T05:54:04.235Z,77.70
2024-02-06T05:56:31.300Z,77.33
2024-02-06T05:58:58.083Z,77.45
2024-02-06T06:01:27.351Z,77.69
2024-02-06T06:03:54.242Z,77.21
2024-02-06T06:06:21.133Z,77.22
2024-02-06T06:08:49.038Z,77.69
2024-02-06T06:11:18.610Z,77.37
2024-02-06T06:13:45.407Z,77.39
2024-02-06T06:16:12.188Z,77.44
2024-02-06T06:18:38.956Z,77.60
2024-02-06T06:21:05.808Z,77.48
2024-02-06T06:23:32.920Z,77.33
2024-02-06T06:26:02.313Z,77.25
2024-02-06T06:28:29.662Z,77.42
2024-02-06T06:30:56.485Z,77.11
2024-02-06T06:33:23.404Z,76.93
2024-02-06T06:35:50.218Z,76.98
2024-02-06T06:38:17.000Z,76.86
2024-02-06T06:40:43.717Z,77.35
2024-02-06T06:43:11.134Z,77.22
2024-02-06T06:45:37.882Z,77.28
2024-02-06T06:48:05.588Z,77.01
2024-02-06T06:50:32.714Z,77.24
2024-02-06T06:53:00.651Z,77.08
2024-02-06T06:55:27.493Z,77.15
2024-02-06T06:57:54.476Z,76.72
2024-02-06T07:00:22.040Z,76.65
2024-02-06T07:02:49.109Z,76.46
2024-02-06T07:05:16.350Z,76.50
2024-02-06T07:07:43.394Z,76.41
2024-02-06T07:10:10.680Z,76.63
2024-02-06T07:12:37.847Z,76.17
2024-02-06T07:15:08.289Z,76.65
2024-02-06T07:17:37.620Z,76.49
2024-02-06T07:20:05.107Z,76.45
2024-02-06T07:22:35.016Z,76.32
2024-02-06T07:25:02.235Z,76.22
2024-02-06T07:27:29.065Z,76.63
2024-02-06T07:29:55.870Z,76.34
2024-02-06T07:32:22.599Z,76.66
2024-02-06T07:34:50.141Z,76.09
2024-02-06T07:37:17.044Z,76.34
2024-02-06T07:39:43.884Z,75.97
2024-02-06T07:42:10.647Z,76.05
2024-02-06T07:44:37.398Z,76.25
2024-02-06T07:47:04.428Z,75.78
2024-02-06T07:49:31.322Z,76.30
2024-02-06T07:51:58.395Z,75.89
2024-02-06T07:54:25.232Z,75.76
2024-02-06T07:56:52.919Z,75.75
2024-02-06T07:59:19.673Z,75.92
2024-02-06T08:01:47.032Z,75.57
2024-02-06T08:04:14.495Z,75.41
2024-02-06T08:06:41.966Z,75.82
2024-02-06T08:09:09.487Z,75.77
2024-02-06T08:11:37.460Z,75.46
2024-02-06T08:14:05.066Z,75.68
2024-02-06T08:16:32.059Z,75.46
2024-02-06T08:18:59.046Z,75.47
2024-02-06T08:21:26.222Z,75.66
2024-02-06T08:23:53.139Z,75.53
2024-02-06T08:26:20.623Z,75.80
2024-02-06T08:28:47.556Z,75.71
2024-02-06T08:31:15.239Z,75.13
2024-02-06T08:33:46.106Z,75.03
2024-02-06T08:36:16.571Z,74.82
2024-02-06T08:38:44.393Z,74.87
2024-02-06T08:41:11.248Z,74.70
2024-02-06T08:43:46.073Z,74.11
2024-02-06T08:46:19.749Z,74.20
2024-02-06T08:48:46.923Z,74.61
2024-02-06T08:51:13.701Z,74.41
2024-02-06T08:53:40.815Z,73.81
2024-02-06T08:56:09.011Z,74.17
2024-02-06T08:58:39.324Z,73.80
2024-02-06T09:01:07.643Z,74.08
2024-02-06T09:03:35.299Z,74.25
2024-02-06T09:06:02.269Z,74.58
2024-02-06T09:08:29.166Z,74.33
2024-02-06T09:10:56.067Z,74.85
2024-02-06T09:13:25.919Z,74.58
2024-02-06T09:15:52.982Z,74.51
2024-02-06T09:18:21.620Z,74.51
2024-02-06T09:20:49.882Z,74.79
2024-02-06T09:23:16.650Z,74.33
2024-02-06T09:25:45.456Z,74.91
2024-02-06T09:28:12.426Z,74.84
2024-02-06T09:30:41.590Z,74.72
2024-02-06T09:33:08.746Z,75.00
2024-02-06T09:35:36.758Z,74.88
2024-02-06T09:38:04.009Z,74.68
2024-02-06T09:40:33.714Z,74.63
2024-02-06T09:43:01.157Z,74.79
2024-02-06T09:45:28.567Z,74.59
2024-02-06T09:47:55.459Z,74.87
2024-02-06T09:50:22.337Z,74.49
2024-02-06T09:52:50.446Z,74.73
2024-02-06T09:55:19.945Z,74.53
2024-02-06T09:57:51.336Z,74.64
2024-02-06T10:00:20.489Z,74.80
2024-02-06T10:02:48.906Z,74.12
2024-02-06T10:05:22.954Z,74.19
2024-02-06T10:07:50.626Z,73.94
2024-02-06T10:10:19.828Z,73.72
2024-02-06T10:12:46.902Z,73.30
2024-02-06T10:15:26.083Z,72.82
2024-02-06T10:17:55.116Z,73.11
2024-02-06T10:20:21.961Z,72.74
2024-02-06T10:22:48.784Z,72.37
2024-02-06T10:25:17.612Z,72.55
2024-02-06T10:27:44.590Z,72.52
2024-02-06T10:30:12.172Z,72.25
2024-02-06T10:32:39.847Z,72.49
2024-02-06T10:35:09.440Z,71.97
2024-02-06T10:37:38.748Z,71.82
2024-02-06T10:40:09.234Z,71.99
2024-02-06T10:43:09.112Z,72.02
2024-02-06T10:45:23.652Z,71.67
2024-02-06T10:47:57.930Z,71.30
2024-02-06T10:50:25.084Z,71.76
2024-02-06T10:52:52.130Z,71.42
2024-02-06T10:55:18.935Z,71.76
2024-02-06T10:57:47.252Z,71.67
2024-02-06T11:00:20.551Z,71.38
2024-02-06T11:02:54.493Z,71.42
2024-02-06T11:05:50.363Z,71.29
2024-02-06T11:08:20.271Z,71.53
2024-02-06T11:10:48.918Z,71.54
2024-02-06T11:13:23.622Z,71.69
2024-02-06T11:15:56.048Z,71.83
2024-02-06T11:18:28.009Z,71.65
2024-02-06T11:20:56.865Z,71.40
2024-02-06T11:23:24.269Z,71.38
2024-02-06T11:25:51.419Z,71.43
2024-02-06T11:28:21.310Z,70.84
2024-02-06T11:30:48.403Z,71.39
2024-02-06T11:33:16.462Z,71.56
2024-02-06T11:35:43.492Z,71.00
2024-02-06T11:38:13.812Z,71.06
2024-02-06T11:40:43.288Z,71.19
2024-02-06T11:43:10.248Z,70.85
2024-02-06T11:45:38.947Z,70.34
2024-02-06T11:48:08.755Z,70.29
2024-02-06T11:50:48.057Z,70.62
2024-02-06T11:53:15.882Z,70.74
2024-02-06T11:55:43.829Z,71.14
2024-02-06T11:58:11.653Z,71.22
2024-02-06T12:00:39.246Z,70.75
2024-02-06T12:03:07.581Z,70.77
2024-02-06T12:05:44.416Z,70.60
2024-02-06T12:08:17.077Z,71.10
2024-02-06T12:10:44.908Z,70.66
2024-02-06T12:13:13.106Z,70.77
2024-02-06T12:15:41.276Z,70.84
2024-02-06T12:18:12.632Z,71.42
2024-02-06T12:20:39.579Z,71.44
2024-02-06T12:23:08.479Z,71.61
2024-02-06T12:25:37.713Z,71.31
2024-02-06T12:28:09.577Z,71.65
2024-02-06T12:30:36.327Z,71.73
2024-02-06T12:33:03.747Z,71.86
2024-02-06T12:35:30.834Z,71.81
2024-02-06T12:37:58.882Z,71.84
2024-02-06T12:40:33.831Z,71.40
2024-02-06T12:43:05.651Z,71.20
2024-02-06T12:45:34.428Z,71.25
2024-02-06T12:48:01.889Z,71.51
2024-02-06T12:50:29.274Z,71.37
2024-02-06T12:52:56.998Z,71.46
2024-02-06T12:55:24.540Z,71.66
2024-02-06T12:57:58.359Z,71.41
2024-02-06T13:00:25.981Z,71.70
2024-02-06T13:03:03.401Z,71.78
2024-02-06T13:05:32.879Z,71.61
2024-02-06T13:08:10.386Z,72.18
2024-02-06T13:10:38.556Z,71.97
2024-02-06T13:13:06.685Z,71.46
2024-02-06T13:15:34.826Z,71.56
2024-02-06T13:18:02.616Z,71.12
2024-02-06T13:20:34.199Z,71.15
2024-02-06T13:23:12.283Z,70.94
2024-02-06T13:25:39.923Z,70.81
2024-02-06T13:28:07.100Z,70.66
2024-02-06T13:30:36.577Z,70.47
2024-02-06T13:33:04.990Z,70.80
2024-02-06T13:35:32.354Z,70.54
2024-02-06T13:38:02.466Z,70.43
2024-02-06T13:40:29.769Z,71.05
2024-02-06T13:42:56.831Z,70.63
2024-02-06T13:45:24.319Z,70.98
2024-02-06T13:47:51.236Z,70.77
2024-02-06T13:50:19.503Z,70.97
2024-02-06T13:52:46.504Z,71.08
2024-02-06T13:55:15.254Z,70.75
2024-02-06T13:57:42.609Z,70.67
2024-02-06T14:00:09.935Z,71.01
2024-02-06T14:02:37.175Z,71.12
2024-02-06T14:05:05.633Z,70.99
2024-02-06T14:07:32.993Z,71.13
2024-02-06T14:09:59.875Z,71.42
2024-02-06T14:12:32.563Z,71.25
2024-02-06T14:15:07.728Z,71.54
2024-02-06T14:17:35.928Z,71.14
2024-02-06T14:20:03.190Z,70.74
2024-02-06T14:22:30.533Z,70.71
2024-02-06T14:24:57.454Z,70.93
2024-02-06T14:27:25.724Z,71.13
2024-02-06T14:29:52.670Z,70.95
2024-02-06T14:32:19.564Z,70.98
2024-02-06T14:34:46.443Z,71.10
2024-02-06T14:37:13.714Z,70.82
2024-02-06T14:39:40.943Z,71.19
2024-02-06T14:42:08.072Z,71.14
2024-02-06T14:44:41.302Z,71.59
2024-02-06T14:47:14.496Z,71.51
2024-02-06T14:49:42.170Z,71.43
2024-02-06T14:52:09.281Z,71.36
2024-02-06T14:54:36.209Z,71.54
2024-02-06T14:57:03.248Z,71.51
2024-02-06T14:59:30.789Z,71.92
2024-02-06T15:01:57.798Z,71.91
2024-02-06T15:04:24.841Z,71.68
2024-02-06T15:06:51.761Z,72.16
2024-02-06T15:09:18.869Z,72.11
2024-02-06T15:11:45.836Z,72.04
2024-02-06T15:14:12.862Z,71.94
2024-02-06T15:16:41.904Z,72.07
2024-02-06T15:19:09.577Z,72.03
2024-02-06T15:21:37.032Z,72.29
2024-02-06T15:24:04.118Z,72.46
2024-02-06T15:26:31.554Z,72.06
2024-02-06T15:28:58.692Z,72.03
2024-02-06T15:31:25.605Z,72.37
2024-02-06T15:33:56.514Z,72.25
2024-02-06T15:36:23.496Z,72.71
2024-02-06T15:38:50.445Z,72.49
2024-02-06T15:41:17.550Z,72.68
2024-02-06T15:43:44.481Z,72.67
2024-02-06T15:46:12.319Z,72.41
2024-02-06T15:48:47.129Z,72.71
2024-02-06T15:51:14.639Z,72.56
2024-02-06T15:53:42.320Z,72.23
2024-02-06T15:56:09.822Z,72.62
2024-02-06T15:58:37.117Z,72.77
2024-02-06T16:01:04.927Z,72.64
2024-02-06T16:03:32.363Z,72.83
2024-02-06T16:06:00.720Z,73.22
2024-02-06T16:08:28.284Z,73.12
2024-02-06T16:10:55.386Z,72.86
2024-02-06T16:13:24.025Z,73.00
2024-02-06T16:15:51.616Z,73.46
2024-02-06T16:18:19.444Z,73.12
2024-02-06T16:20:47.345Z,73.22
2024-02-06T16:23:14.367Z,73.06
2024-02-06T16:25:41.329Z,73.17
2024-02-06T16:28:08.533Z,73.33
2024-02-06T16:30:35.367Z,72.86
2024-02-06T16:33:02.306Z,73.14
2024-02-06T16:35:29.158Z,72.78
2024-02-06T16:37:56.426Z,73.23
2024-02-06T16:40:23.515Z,72.83
2024-02-06T16:42:50.741Z,73.28
2024-02-06T16:45:17.971Z,73.49
2024-02-06T16:47:44.808Z,72.92
2024-02-06T16:50:17.839Z,72.82
2024-02-06T16:52:45.700Z,73.16
2024-02-06T16:55:13.240Z,73.07
2024-02-06T16:57:40.062Z,73.12
2024-02-06T17:00:07.462Z,73.17
2024-02-06T17:02:37.432Z,73.41
2024-02-06T17:05:14.394Z,73.42
2024-02-06T17:07:45.728Z,73.40
2024-02-06T17:10:18.367Z,73.03
2024-02-06T17:12:51.367Z,73.20
2024-02-06T17:15:23.027Z,73.14
2024-02-06T17:18:05.696Z,73.46
2024-02-06T17:20:38.204Z,73.13
2024-02-06T17:23:14.007Z,73.30
2024-02-06T17:25:45.419Z,72.77
2024-02-06T17:28:19.854Z,72.87
2024-02-06T17:30:55.113Z,72.72
2024-02-06T17:33:26.408Z,72.71
2024-02-06T17:36:04.955Z,72.70
2024-02-06T17:38:36.457Z,72.73
2024-02-06T17:41:14.412Z,72.83
2024-02-06T17:43:50.355Z,73.16
2024-02-06T17:46:21.394Z,72.97
2024-02-06T17:48:56.753Z,72.77
2024-02-06T17:51:34.882Z,72.65
2024-02-06T17:54:05.236Z,72.49
2024-02-06T17:56:40.621Z,72.47
2024-02-06T17:59:13.402Z,72.46
2024-02-06T18:01:42.225Z,72.70
2024-02-06T18:04:15.735Z,72.44
2024-02-06T18:06:49.044Z,72.50
2024-02-06T18:09:24.158Z,72.79
2024-02-06T18:11:53.496Z,72.87
2024-02-06T18:14:26.331Z,73.25
2024-02-06T18:17:18.921Z,73.14
2024-02-06T18:19:54.401Z,72.96
2024-02-06T18:22:26.301Z,72.52
2024-02-06T18:25:01.086Z,72.76
2024-02-06T18:27:33.615Z,72.58
2024-02-06T18:30:05.144Z,72.72
2024-02-06T18:32:39.369Z,72.71
2024-02-06T18:35:10.545Z,72.46
2024-02-06T18:37:42.722Z,72.11
2024-02-06T18:40:25.502Z,72.44
2024-02-06T18:42:58.387Z,72.83
2024-02-06T18:45:29.808Z,72.62
2024-02-06T18:48:01.242Z,72.28
2024-02-06T18:50:35.897Z,72.56
2024-02-06T18:53:07.170Z,72.60
2024-02-06T18:55:39.142Z,72.58
2024-02-06T18:58:15.309Z,72.37
2024-02-06T19:00:48.629Z,72.58
2024-02-06T19:03:21.327Z,72.37
2024-02-06T19:05:52.902Z,72.52
2024-02-06T19:08:30.491Z,72.72
2024-02-06T19:11:05.658Z,72.78
2024-02-06T19:13:38.110Z,72.73
2024-02-06T19:16:15.615Z,72.65
2024-02-06T19:18:51.066Z,72.60
2024-02-06T19:21:29.322Z,72.44
2024-02-06T19:24:02.657Z,72.47
2024-02-06T19:26:37.199Z,72.80
2024-02-06T19:29:10.054Z,73.08
2024-02-06T19:31:46.652Z,73.13
2024-02-06T19:34:18.742Z,73.03
2024-02-06T19:36:52.815Z,73.32
2024-02-06T19:39:25.498Z,73.27
2024-02-06T19:41:59.309Z,73.32
2024-02-06T19:44:33.617Z,73.29
2024-02-06T19:47:08.643Z,73.22
2024-02-06T19:49:48.955Z,73.02
2024-02-06T19:52:31.104Z,73.55
2024-02-06T19:55:02.832Z,73.32
2024-02-06T19:57:36.580Z,73.41
2024-02-06T20:00:13.396Z,73.13
2024-02-06T20:02:52.142Z,73.07
2024-02-06T20:05:25.716Z,72.84
2024-02-06T20:07:57.745Z,73.04
2024-02-06T20:10:28.535Z,73.07
2024-02-06T20:12:59.319Z,73.27
2024-02-06T20:15:41.732Z,73.33
2024-02-06T20:18:14.805Z,73.48
2024-02-06T20:20:44.954Z,73.77
2024-02-06T20:23:15.559Z,73.68
2024-02-06T20:25:45.970Z,73.26
2024-02-06T20:28:19.921Z,73.38
2024-02-06T20:31:04.852Z,73.52
2024-02-06T20:33:32.566Z,73.45
2024-02-06T20:35:59.439Z,73.52
2024-02-06T20:38:27.378Z,73.22
2024-02-06T20:40:55.179Z,73.34
2024-02-06T20:43:22.331Z,73.20
2024-02-06T20:45:49.258Z,73.25
2024-02-06T20:48:18.639Z,73.19
2024-02-06T20:50:45.775Z,73.05
2024-02-06T20:53:12.767Z,73.05
2024-02-06T20:55:39.668Z,73.26
2024-02-06T20:58:06.838Z,73.16
2024-02-06T21:00:33.589Z,73.25
2024-02-06T21:03:01.634Z,73.12
2024-02-06T21:05:28.846Z,73.05
2024-02-06T21:07:56.776Z,73.29
2024-02-06T21:10:23.769Z,73.35
2024-02-06T21:12:53.779Z,73.02
2024-02-06T21:15:20.698Z,73.07
2024-02-06T21:17:48.134Z,72.99
2024-02-06T21:20:15.838Z,73.13
2024-02-06T21:22:43.065Z,73.16
2024-02-06T21:25:10.353Z,73.12
2024-02-06T21:27:38.018Z,73.25
2024-02-06T21:30:07.057Z,73.17
2024-02-06T21:32:33.994Z,73.20
2024-02-06T21:35:01.073Z,73.28
2024-02-06T21:37:28.043Z,73.27
2024-02-06T21:39:58.402Z,73.19
2024-02-06T21:42:28.940Z,73.17
2024-02-06T21:44:55.879Z,73.38
2024-02-06T21:47:22.912Z,73.25
2024-02-06T21:49:51.152Z,73.58
2024-02-06T21:52:18.907Z,73.16
2024-02-06T21:54:46.132Z,73.19
2024-02-06T21:57:13.229Z,73.26
2024-02-06T21:59:46.152Z,73.01
2024-02-06T22:02:14.794Z,73.21
2024-02-06T22:04:41.674Z,73.22
2024-02-06T22:07:12.014Z,73.22
2024-02-06T22:09:38.833Z,73.51
2024-02-06T22:12:06.300Z,73.46
2024-02-06T22:14:33.138Z,73.38
2024-02-06T22:17:00.336Z,73.41
2024-02-06T22:19:27.890Z,73.34
2024-02-06T22:21:55.155Z,73.36
2024-02-06T22:24:25.436Z,73.57
2024-02-06T22:26:53.988Z,73.24
2024-02-06T22:29:21.810Z,73.23
2024-02-06T22:31:49.087Z,73.03
2024-02-06T22:34:17.869Z,73.25
2024-02-06T22:36:45.159Z,73.44
2024-02-06T22:39:12.244Z,73.25
2024-02-06T22:41:39.154Z,73.06
2024-02-06T22:44:06.821Z,73.41
2024-02-06T22:46:35.055Z,73.14
2024-02-06T22:49:02.725Z,73.62
2024-02-06T22:51:32.379Z,73.11
2024-02-06T22:54:07.493Z,73.09
2024-02-06T22:56:34.329Z,73.19
2024-02-06T22:59:01.243Z,73.26
2024-02-06T23:01:28.571Z,73.47
2024-02-06T23:03:55.586Z,73.40
2024-02-06T23:06:22.507Z,73.26
2024-02-06T23:08:49.494Z,73.31
2024-02-06T23:11:16.353Z,73.01
2024-02-06T23:13:43.230Z,73.74
2024-02-06T23:16:10.822Z,73.36
2024-02-06T23:18:38.442Z,73.03
2024-02-06T23:21:05.556Z,72.84
2024-02-06T23:23:32.478Z,72.50
2024-02-06T23:25:59.495Z,72.79
2024-02-06T23:28:26.334Z,73.15
2024-02-06T23:30:53.143Z,72.41
2024-02-06T23:33:19.962Z,72.87
2024-02-06T23:35:47.009Z,72.62
2024-02-06T23:38:13.915Z,72.56
2024-02-06T23:40:41.115Z,72.66
2024-02-06T23:43:07.869Z,72.67
2024-02-06T23:45:35.203Z,72.35
2024-02-06T23:48:01.969Z,72.28
2024-02-06T23:50:28.841Z,72.57
2024-02-06T23:52:55.708Z,72.39
2024-02-06T23:55:22.917Z,72.59
2024-02-06T23:57:49.897Z,72.60
